Eems Dover — PBYV — position and weather

sailwx.info

Track history (hours):
 
Tides and Currents Weather Stations Pressure Air Temp Water Temp Dewpoint Dewpoint Depression Visibility Wind Speed Wind Dir Waves Ship Positions

Eems Dover

Last reported at 2017-Sep-21 02:17 UTC. Time now 2017-Sep-21 07:12 UTC.
Position N 34°58' W 011°59'.

Length 108 m; draft 6.3 m.

Type: Cargo ship. MMSI: 245547000.

Date/timePositionNaut miles runAvg speedWind from/ knotsBaromVisibWave heightAir tempDewpointWater temp
2017-Sep-21 02:17N 34°58' W 011°59'37 9.6
2017-Sep-20 22:29N 35°34' W 011°51'6 9.4
2017-Sep-20 21:50N 35°40' W 011°50'3 9.1
2017-Sep-20 21:29N 35°43' W 011°49'7 9.3
2017-Sep-20 20:43N 35°50' W 011°48'4 9.2
2017-Sep-20 20:20N 35°53' W 011°47'4 9.2
2017-Sep-20 19:57N 35°57' W 011°46'5 9.2
2017-Sep-20 19:22N 36°02' W 011°45'6 9.6
2017-Sep-20 18:46N 36°08' W 011°44'3 9.5
2017-Sep-20 18:25N 36°11' W 011°43'4 9.5
2017-Sep-20 18:00N 36°15' W 011°42'5 9.4
2017-Sep-20 17:30N 36°20' W 011°41'5 9.6
2017-Sep-20 16:56N 36°25' W 011°40'4 9.5
2017-Sep-20 16:30N 36°29' W 011°39'5 9.7
2017-Sep-20 16:00N 36°34' W 011°38'5 9.5
2017-Sep-20 15:28N 36°39' W 011°37'4 9.2
2017-Sep-20 15:00N 36°43' W 011°36'10 9.4
2017-Sep-20 13:58N 36°53' W 011°33'510.1
2017-Sep-20 13:30N 36°57' W 011°32'610.1
2017-Sep-20 12:55N 37°03' W 011°31'510.1
2017-Sep-20 12:27N 37°08' W 011°30'510.1
2017-Sep-20 12:00N 37°12' W 011°29'5 9.8
2017-Sep-20 11:30N 37°17' W 011°28'5 9.8
2017-Sep-20 11:00N 37°22' W 011°27'510.2
2017-Sep-20 10:30N 37°27' W 011°26'510.1
2017-Sep-20 09:59N 37°32' W 011°24'610.2
2017-Sep-20 09:25N 37°38' W 011°23'410.3
2017-Sep-20 09:00N 37°42' W 011°22'510.4
2017-Sep-20 08:30N 37°47' W 011°21'510.3
2017-Sep-20 08:00N 37°52' W 011°20'510.2
2017-Sep-20 07:30N 37°57' W 011°19'5 9.9
2017-Sep-20 07:00N 38°02' W 011°17'5 9.7
2017-Sep-20 06:30N 38°07' W 011°16'5 9.5
2017-Sep-20 06:00N 38°11' W 011°15'5 9.5
2017-Sep-20 05:30N 38°16' W 011°14'5 9.6
2017-Sep-20 05:00N 38°21' W 011°13'5 9.6
2017-Sep-20 04:30N 38°25' W 011°12'5 9.5
2017-Sep-20 04:00N 38°30' W 011°11'5 9.4
2017-Sep-20 03:30N 38°35' W 011°10'16 9.7
2017-Sep-20 01:50N 38°51' W 011°06'310.0
2017-Sep-20 01:30N 38°54' W 011°05'19 9.8
2017-Sep-19 23:36N 39°12' W 011°01'1 9.9
2017-Sep-19 23:30N 39°13' W 011°01'  
2017-Sep-16 23:03N 49°34' W 003°57'110.7
2017-Sep-16 23:00N 49°35' W 003°56'511.0
2017-Sep-16 22:30N 49°37' W 003°49'611.2
2017-Sep-16 22:00N 49°40' W 003°41'611.5
2017-Sep-16 21:30N 49°43' W 003°34'612.0
2017-Sep-16 21:00N 49°46' W 003°26'611.3
2017-Sep-16 20:30N 49°49' W 003°18'611.1
2017-Sep-16 20:00N 49°52' W 003°11'510.8
2017-Sep-16 19:30N 49°55' W 003°03'510.3
2017-Sep-16 19:00N 49°57' W 002°57'5 9.8
2017-Sep-16 18:30N 49°60' W 002°50'5 9.4
2017-Sep-16 18:00N 50°01' W 002°43'9110.4
2017-Sep-16 09:15N 50°27' W 000°27'311.4
2017-Sep-16 09:00N 50°28' W 000°22'611.2
2017-Sep-16 08:30N 50°30' W 000°14'510.9
2017-Sep-16 08:00N 50°31' W 000°06'510.7
2017-Sep-16 07:30N 50°33' E 000°02'510.3
2017-Sep-16 07:00N 50°34' E 000°10'510.0
2017-Sep-16 06:30N 50°35' E 000°18'5 9.6
2017-Sep-16 06:00N 50°36' E 000°25'5 9.6
2017-Sep-16 05:30N 50°38' E 000°32'5 9.6
2017-Sep-16 05:00N 50°40' E 000°39'510.0
2017-Sep-16 04:30N 50°43' E 000°45'510.3
2017-Sep-16 04:00N 50°46' E 000°52'510.8
2017-Sep-16 03:30N 50°49' E 000°59'611.3
2017-Sep-16 03:00N 50°53' E 001°06'611.8
2017-Sep-16 02:30N 50°57' E 001°13'612.1
2017-Sep-16 02:00N 51°01' E 001°20'612.1
2017-Sep-16 01:30N 51°05' E 001°27'611.4
2017-Sep-16 01:00N 51°08' E 001°34'510.8
2017-Sep-16 00:30N 51°12' E 001°41'510.3
2017-Sep-16 00:00N 51°16' E 001°46'510.0
2017-Sep-15 23:30N 51°20' E 001°49'5 9.6
2017-Sep-15 23:00N 51°24' E 001°53'5 9.3
2017-Sep-15 22:30N 51°28' E 001°57'5 9.1
2017-Sep-15 22:00N 51°32' E 002°02'5 9.1
2017-Sep-15 21:30N 51°35' E 002°07'5 9.1
2017-Sep-15 21:00N 51°38' E 002°12'4 9.0
2017-Sep-15 20:30N 51°42' E 002°16'81 9.7
2017-Sep-15 12:06N 52°45' E 003°40'3 8.2
2017-Sep-15 11:46N 52°47' E 003°43'3 8.1
2017-Sep-15 11:23N 52°49' E 003°46'4 7.8
2017-Sep-15 10:48N 52°53' E 003°51'20 8.1
2017-Sep-15 08:22N 53°07' E 004°14'4 9.0
2017-Sep-15 07:58N 53°09' E 004°19'11 9.4
2017-Sep-15 06:51N 53°18' E 004°28'5 9.8
2017-Sep-15 06:23N 53°22' E 004°31'4 9.6
2017-Sep-15 05:59N 53°26' E 004°33'5 9.4
2017-Sep-15 05:29N 53°30' E 004°35'4 9.1
2017-Sep-15 05:00N 53°34' E 004°38'4 8.6
2017-Sep-15 04:30N 53°38' E 004°42'4 8.5
2017-Sep-15 04:00N 53°41' E 004°46'4 8.2
2017-Sep-15 03:30N 53°45' E 004°48'4 8.2
2017-Sep-15 02:59N 53°49' E 004°50'4 8.1
2017-Sep-15 02:29N 53°53' E 004°52'4 8.0
2017-Sep-15 01:59N 53°57' E 004°54'4 7.5
2017-Sep-15 01:30N 54°00' E 004°56'4 7.6
2017-Sep-15 01:00N 54°04' E 004°59'4 7.1
2017-Sep-15 00:29N 54°07' E 005°03'4 7.1
2017-Sep-14 23:59N 54°09' E 005°08'4 7.1
2017-Sep-14 23:28N 54°11' E 005°13'3 7.1
2017-Sep-14 23:00N 54°13' E 005°18'59 7.3
2017-Sep-14 14:58N 54°46' E 006°41'4 8.3
2017-Sep-14 14:30N 54°48' E 006°47'4 8.4
2017-Sep-14 14:01N 54°51' E 006°52'4 8.4
2017-Sep-14 13:31N 54°53' E 006°58'4 8.6
2017-Sep-14 13:00N 54°56' E 007°04'4 8.7
2017-Sep-14 12:30N 54°58' E 007°10'4 8.8
2017-Sep-14 12:00N 55°01' E 007°17'4 8.9
2017-Sep-14 11:30N 55°04' E 007°23'4 8.8
2017-Sep-14 11:00N 55°06' E 007°29'4 8.3
2017-Sep-14 10:30N 55°09' E 007°34'4 8.6
2017-Sep-14 10:00N 55°12' E 007°40'4 8.6
2017-Sep-14 09:30N 55°14' E 007°46'4 8.8
2017-Sep-14 09:00N 55°17' E 007°52'4 8.7
2017-Sep-14 08:30N 55°19' E 007°59'4 8.9
2017-Sep-14 08:00N 55°22' E 008°05'5 9.1
2017-Sep-14 07:30N 55°25' E 008°12'5 9.6
2017-Sep-14 07:00N 55°27' E 008°19'4 7.4
2017-Sep-14 06:30N 55°28' E 008°25'2 2.8
2017-Sep-14 05:55N 55°27' E 008°27'0 0.0
2017-Sep-14 05:28N 55°27' E 008°27'0 0.0
2017-Sep-14 04:58N 55°27' E 008°27'0 0.0
2017-Sep-14 04:25N 55°27' E 008°27'0 0.0
2017-Sep-14 03:55N 55°27' E 008°27'0 0.0
2017-Sep-14 03:28N 55°27' E 008°27'0 0.0
2017-Sep-14 02:58N 55°27' E 008°27'0 0.0
2017-Sep-14 02:28N 55°27' E 008°27'0 0.0
2017-Sep-14 01:55N 55°27' E 008°27'0 0.0
2017-Sep-14 01:28N 55°27' E 008°27'0 0.0
2017-Sep-14 00:55N 55°27' E 008°27'0 0.0
2017-Sep-14 00:28N 55°27' E 008°27'0 0.0
2017-Sep-13 23:55N 55°27' E 008°27'0 0.0
2017-Sep-13 23:28N 55°27' E 008°27'0 0.0
2017-Sep-13 22:55N 55°27' E 008°27'0 0.0
2017-Sep-13 22:28N 55°27' E 008°27'0 0.0
2017-Sep-13 21:55N 55°27' E 008°27'0 0.0
2017-Sep-13 21:28N 55°27' E 008°27'0 0.0
2017-Sep-13 20:58N 55°27' E 008°27'0 0.0
2017-Sep-13 20:30N 55°27' E 008°27'0 0.0
2017-Sep-13 20:00N 55°27' E 008°27'0 0.0
2017-Sep-13 19:30N 55°27' E 008°27'0 0.0
2017-Sep-13 19:00N 55°27' E 008°27'0 0.0
2017-Sep-13 18:30N 55°27' E 008°27'0 0.0
2017-Sep-13 18:00N 55°27' E 008°27'0 0.0
2017-Sep-13 17:30N 55°27' E 008°27'0 0.0
2017-Sep-13 17:00N 55°27' E 008°27'0 0.0
2017-Sep-13 16:30N 55°27' E 008°27'0 0.0
2017-Sep-13 16:00N 55°27' E 008°27'0 0.0
2017-Sep-13 15:30N 55°27' E 008°27'0 0.0
2017-Sep-13 15:00N 55°27' E 008°27'0 0.0
2017-Sep-13 14:30N 55°27' E 008°27'0 0.0
2017-Sep-13 14:00N 55°27' E 008°27'0 0.0
2017-Sep-13 13:30N 55°27' E 008°27'0 0.0
2017-Sep-13 13:00N 55°27' E 008°27'0 0.0
2017-Sep-13 12:30N 55°27' E 008°27'0 0.0
2017-Sep-13 12:00N 55°27' E 008°27'0 0.0
2017-Sep-13 11:30N 55°27' E 008°27'0 0.0
2017-Sep-13 11:00N 55°27' E 008°28'0 0.0
2017-Sep-13 10:30N 55°27' E 008°28'0 0.0
2017-Sep-13 10:00N 55°27' E 008°28'0 0.0
2017-Sep-13 09:30N 55°27' E 008°27'0 0.0
2017-Sep-13 09:00N 55°27' E 008°27'0 0.0
2017-Sep-13 08:30N 55°27' E 008°27'0 0.0
2017-Sep-13 08:00N 55°27' E 008°27'0 0.0
2017-Sep-13 07:30N 55°27' E 008°27'0 0.0
2017-Sep-13 07:00N 55°27' E 008°27'0 0.0
2017-Sep-13 06:30N 55°27' E 008°27'0 0.0
2017-Sep-13 06:00N 55°27' E 008°27'0 0.0
2017-Sep-13 05:30N 55°27' E 008°27'0 0.0
2017-Sep-13 05:00N 55°27' E 008°27'0 0.0
2017-Sep-13 04:30N 55°27' E 008°27'0 0.0
2017-Sep-13 04:00N 55°27' E 008°27'0 0.0
2017-Sep-13 03:30N 55°27' E 008°27'0 0.0
2017-Sep-13 03:00N 55°27' E 008°27'0 0.0
2017-Sep-13 02:30N 55°27' E 008°27'0 0.0
2017-Sep-13 02:00N 55°27' E 008°27'0 0.0
2017-Sep-13 01:30N 55°27' E 008°27'0 0.0
2017-Sep-13 01:00N 55°27' E 008°27'0 0.0
2017-Sep-13 00:30N 55°27' E 008°27'0 0.0
2017-Sep-13 00:00N 55°27' E 008°27'0 0.0
2017-Sep-12 23:30N 55°27' E 008°27'0 0.0
2017-Sep-12 23:00N 55°27' E 008°27'0 0.0
2017-Sep-12 22:30N 55°27' E 008°27'0 0.0
2017-Sep-12 22:00N 55°27' E 008°27'0 0.0
2017-Sep-12 21:30N 55°27' E 008°27'0 0.0
2017-Sep-12 20:58N 55°27' E 008°27'0 0.0
2017-Sep-12 20:30N 55°27' E 008°27'0 0.0
2017-Sep-12 20:00N 55°27' E 008°27'0 0.0
2017-Sep-12 19:30N 55°27' E 008°27'0 0.0
2017-Sep-12 19:00N 55°27' E 008°27'0 0.0
2017-Sep-12 18:30N 55°27' E 008°27'0 0.0
2017-Sep-12 18:00N 55°27' E 008°27'0 0.0
2017-Sep-12 17:30N 55°27' E 008°27'0 0.0
2017-Sep-12 17:00N 55°27' E 008°27'0 0.0
2017-Sep-12 16:30N 55°27' E 008°27'0 0.0
2017-Sep-12 16:00N 55°27' E 008°27'0 0.0
2017-Sep-12 15:30N 55°27' E 008°27'0 0.0
2017-Sep-12 15:00N 55°27' E 008°27'0 0.0
2017-Sep-12 14:30N 55°27' E 008°27'0 0.0
2017-Sep-12 14:00N 55°27' E 008°27'0 0.0
2017-Sep-12 13:30N 55°27' E 008°27'0 0.0
2017-Sep-12 13:00N 55°27' E 008°27'0 0.0
2017-Sep-12 12:30N 55°27' E 008°27'0 0.0
2017-Sep-12 12:00N 55°27' E 008°27'0 0.0
2017-Sep-12 11:30N 55°27' E 008°27'0 0.0
2017-Sep-12 11:00N 55°27' E 008°27'0 0.0
2017-Sep-12 10:30N 55°27' E 008°27'0 0.0
2017-Sep-12 10:00N 55°27' E 008°27'0 0.0
2017-Sep-12 09:30N 55°27' E 008°27'0 0.0
2017-Sep-12 09:00N 55°27' E 008°27'0 0.0
2017-Sep-12 08:30N 55°27' E 008°27'0 0.0
2017-Sep-12 08:00N 55°27' E 008°27'0 0.0
2017-Sep-12 07:30N 55°27' E 008°27'0 0.0
2017-Sep-12 07:00N 55°27' E 008°27'0 0.0
2017-Sep-12 06:30N 55°27' E 008°27'0 0.0
2017-Sep-12 06:00N 55°27' E 008°27'0 0.0
2017-Sep-12 05:30N 55°27' E 008°27'0 0.0
2017-Sep-12 05:00N 55°27' E 008°27'0 0.0
2017-Sep-12 04:30N 55°27' E 008°27'0 0.0
2017-Sep-12 04:00N 55°27' E 008°27'0 0.0
2017-Sep-12 03:30N 55°27' E 008°27'0 0.0
2017-Sep-12 03:00N 55°27' E 008°27'0 0.0
2017-Sep-12 02:30N 55°27' E 008°27'0 0.0
2017-Sep-12 02:00N 55°27' E 008°27'0 0.0
2017-Sep-12 01:30N 55°27' E 008°27'0 0.0
2017-Sep-12 01:00N 55°27' E 008°27'0 0.0
2017-Sep-12 00:30N 55°27' E 008°27'0 0.0
2017-Sep-12 00:00N 55°27' E 008°27'0 0.0
2017-Sep-11 23:30N 55°27' E 008°27'0 0.0
2017-Sep-11 23:00N 55°27' E 008°27'0 0.0
2017-Sep-11 22:30N 55°27' E 008°27'0 0.0
2017-Sep-11 22:00N 55°27' E 008°27'0 0.0
2017-Sep-11 21:30N 55°27' E 008°27'0 0.0
2017-Sep-11 21:00N 55°27' E 008°27'0 0.0
2017-Sep-11 20:30N 55°27' E 008°27'0 0.0
2017-Sep-11 20:00N 55°27' E 008°27'0 0.0
2017-Sep-11 19:30N 55°27' E 008°27'0 0.0
2017-Sep-11 19:00N 55°27' E 008°27'0 0.0
2017-Sep-11 18:30N 55°27' E 008°27'0 0.0
2017-Sep-11 18:00N 55°27' E 008°27'0 0.0
2017-Sep-11 17:30N 55°27' E 008°27'0 0.0
2017-Sep-11 17:00N 55°27' E 008°27'0 0.0
2017-Sep-11 16:30N 55°27' E 008°27'0 0.0
2017-Sep-11 16:00N 55°27' E 008°27'0 0.0
2017-Sep-11 15:30N 55°27' E 008°27'0 0.0
2017-Sep-11 15:00N 55°27' E 008°27'0 0.0
2017-Sep-11 14:30N 55°27' E 008°27'0 0.0
2017-Sep-11 14:00N 55°27' E 008°27'0 0.0
2017-Sep-11 13:30N 55°27' E 008°27'0 0.0
2017-Sep-11 13:00N 55°27' E 008°27'0 0.0
2017-Sep-11 12:30N 55°27' E 008°27'0 0.0
2017-Sep-11 12:00N 55°27' E 008°27'0 0.0
2017-Sep-11 11:30N 55°27' E 008°27'0 0.0
2017-Sep-11 11:00N 55°27' E 008°27'0 0.0
2017-Sep-11 10:30N 55°27' E 008°27'0 0.0
2017-Sep-11 10:00N 55°27' E 008°27'0 0.0
2017-Sep-11 09:30N 55°27' E 008°27'0 0.0
2017-Sep-11 09:00N 55°27' E 008°27'0 0.0
2017-Sep-11 08:30N 55°27' E 008°27'0 0.0
2017-Sep-11 08:00N 55°27' E 008°27'0 0.0
2017-Sep-11 07:28N 55°27' E 008°27'0 0.0
2017-Sep-11 07:00N 55°27' E 008°27'0 0.0
2017-Sep-11 06:30N 55°27' E 008°27'0 0.0
2017-Sep-11 05:59N 55°27' E 008°27'0 0.0
2017-Sep-11 05:30N 55°27' E 008°27'0 0.0
2017-Sep-11 05:00N 55°27' E 008°27'0 0.0
2017-Sep-11 04:30N 55°27' E 008°27'0 0.0
2017-Sep-11 04:00N 55°27' E 008°27'0 0.0
2017-Sep-11 03:30N 55°27' E 008°27'0 0.0
2017-Sep-11 03:00N 55°27' E 008°27'0 0.0
2017-Sep-11 02:30N 55°27' E 008°27'  
Track history (hours):
 
Tides and Currents Weather Stations Pressure Air Temp Water Temp Dewpoint Dewpoint Depression Visibility Wind Speed Wind Dir Waves Ship Positions

Eems Dover

Last reported at 2017-Sep-21 02:17 UTC. Time now 2017-Sep-21 07:12 UTC.
Position N 34°58' W 011°59'.

Length 108 m; draft 6.3 m.

Type: Cargo ship. MMSI: 245547000.

Date/timePositionNaut miles runAvg speedWind from/ knotsBaromVisibWave heightAir tempDewpointWater temp
2017-Sep-21 02:17N 34°58' W 011°59'37 9.6
2017-Sep-20 22:29N 35°34' W 011°51'6 9.4
2017-Sep-20 21:50N 35°40' W 011°50'3 9.1
2017-Sep-20 21:29N 35°43' W 011°49'7 9.3
2017-Sep-20 20:43N 35°50' W 011°48'4 9.2
2017-Sep-20 20:20N 35°53' W 011°47'4 9.2
2017-Sep-20 19:57N 35°57' W 011°46'5 9.2
2017-Sep-20 19:22N 36°02' W 011°45'6 9.6
2017-Sep-20 18:46N 36°08' W 011°44'3 9.5
2017-Sep-20 18:25N 36°11' W 011°43'4 9.5
2017-Sep-20 18:00N 36°15' W 011°42'5 9.4
2017-Sep-20 17:30N 36°20' W 011°41'5 9.6
2017-Sep-20 16:56N 36°25' W 011°40'4 9.5
2017-Sep-20 16:30N 36°29' W 011°39'5 9.7
2017-Sep-20 16:00N 36°34' W 011°38'5 9.5
2017-Sep-20 15:28N 36°39' W 011°37'4 9.2
2017-Sep-20 15:00N 36°43' W 011°36'10 9.4
2017-Sep-20 13:58N 36°53' W 011°33'510.1
2017-Sep-20 13:30N 36°57' W 011°32'610.1
2017-Sep-20 12:55N 37°03' W 011°31'510.1
2017-Sep-20 12:27N 37°08' W 011°30'510.1
2017-Sep-20 12:00N 37°12' W 011°29'5 9.8
2017-Sep-20 11:30N 37°17' W 011°28'5 9.8
2017-Sep-20 11:00N 37°22' W 011°27'510.2
2017-Sep-20 10:30N 37°27' W 011°26'510.1
2017-Sep-20 09:59N 37°32' W 011°24'610.2
2017-Sep-20 09:25N 37°38' W 011°23'410.3
2017-Sep-20 09:00N 37°42' W 011°22'510.4
2017-Sep-20 08:30N 37°47' W 011°21'510.3
2017-Sep-20 08:00N 37°52' W 011°20'510.2
2017-Sep-20 07:30N 37°57' W 011°19'5 9.9
2017-Sep-20 07:00N 38°02' W 011°17'5 9.7
2017-Sep-20 06:30N 38°07' W 011°16'5 9.5
2017-Sep-20 06:00N 38°11' W 011°15'5 9.5
2017-Sep-20 05:30N 38°16' W 011°14'5 9.6
2017-Sep-20 05:00N 38°21' W 011°13'5 9.6
2017-Sep-20 04:30N 38°25' W 011°12'5 9.5
2017-Sep-20 04:00N 38°30' W 011°11'5 9.4
2017-Sep-20 03:30N 38°35' W 011°10'16 9.7
2017-Sep-20 01:50N 38°51' W 011°06'310.0
2017-Sep-20 01:30N 38°54' W 011°05'19 9.8
2017-Sep-19 23:36N 39°12' W 011°01'1 9.9
2017-Sep-19 23:30N 39°13' W 011°01'  
2017-Sep-16 23:03N 49°34' W 003°57'110.7
2017-Sep-16 23:00N 49°35' W 003°56'511.0
2017-Sep-16 22:30N 49°37' W 003°49'611.2
2017-Sep-16 22:00N 49°40' W 003°41'611.5
2017-Sep-16 21:30N 49°43' W 003°34'612.0
2017-Sep-16 21:00N 49°46' W 003°26'611.3
2017-Sep-16 20:30N 49°49' W 003°18'611.1
2017-Sep-16 20:00N 49°52' W 003°11'510.8
2017-Sep-16 19:30N 49°55' W 003°03'510.3
2017-Sep-16 19:00N 49°57' W 002°57'5 9.8
2017-Sep-16 18:30N 49°60' W 002°50'5 9.4
2017-Sep-16 18:00N 50°01' W 002°43'9110.4
2017-Sep-16 09:15N 50°27' W 000°27'311.4
2017-Sep-16 09:00N 50°28' W 000°22'611.2
2017-Sep-16 08:30N 50°30' W 000°14'510.9
2017-Sep-16 08:00N 50°31' W 000°06'510.7
2017-Sep-16 07:30N 50°33' E 000°02'510.3
2017-Sep-16 07:00N 50°34' E 000°10'510.0
2017-Sep-16 06:30N 50°35' E 000°18'5 9.6
2017-Sep-16 06:00N 50°36' E 000°25'5 9.6
2017-Sep-16 05:30N 50°38' E 000°32'5 9.6
2017-Sep-16 05:00N 50°40' E 000°39'510.0
2017-Sep-16 04:30N 50°43' E 000°45'510.3
2017-Sep-16 04:00N 50°46' E 000°52'510.8
2017-Sep-16 03:30N 50°49' E 000°59'611.3
2017-Sep-16 03:00N 50°53' E 001°06'611.8
2017-Sep-16 02:30N 50°57' E 001°13'612.1
2017-Sep-16 02:00N 51°01' E 001°20'612.1
2017-Sep-16 01:30N 51°05' E 001°27'611.4
2017-Sep-16 01:00N 51°08' E 001°34'510.8
2017-Sep-16 00:30N 51°12' E 001°41'510.3
2017-Sep-16 00:00N 51°16' E 001°46'510.0
2017-Sep-15 23:30N 51°20' E 001°49'5 9.6
2017-Sep-15 23:00N 51°24' E 001°53'5 9.3
2017-Sep-15 22:30N 51°28' E 001°57'5 9.1
2017-Sep-15 22:00N 51°32' E 002°02'5 9.1
2017-Sep-15 21:30N 51°35' E 002°07'5 9.1
2017-Sep-15 21:00N 51°38' E 002°12'4 9.0
2017-Sep-15 20:30N 51°42' E 002°16'81 9.7
2017-Sep-15 12:06N 52°45' E 003°40'3 8.2
2017-Sep-15 11:46N 52°47' E 003°43'3 8.1
2017-Sep-15 11:23N 52°49' E 003°46'4 7.8
2017-Sep-15 10:48N 52°53' E 003°51'20 8.1
2017-Sep-15 08:22N 53°07' E 004°14'4 9.0
2017-Sep-15 07:58N 53°09' E 004°19'11 9.4
2017-Sep-15 06:51N 53°18' E 004°28'5 9.8
2017-Sep-15 06:23N 53°22' E 004°31'4 9.6
2017-Sep-15 05:59N 53°26' E 004°33'5 9.4
2017-Sep-15 05:29N 53°30' E 004°35'4 9.1
2017-Sep-15 05:00N 53°34' E 004°38'4 8.6
2017-Sep-15 04:30N 53°38' E 004°42'4 8.5
2017-Sep-15 04:00N 53°41' E 004°46'4 8.2
2017-Sep-15 03:30N 53°45' E 004°48'4 8.2
2017-Sep-15 02:59N 53°49' E 004°50'4 8.1
2017-Sep-15 02:29N 53°53' E 004°52'4 8.0
2017-Sep-15 01:59N 53°57' E 004°54'4 7.5
2017-Sep-15 01:30N 54°00' E 004°56'4 7.6
2017-Sep-15 01:00N 54°04' E 004°59'4 7.1
2017-Sep-15 00:29N 54°07' E 005°03'4 7.1
2017-Sep-14 23:59N 54°09' E 005°08'4 7.1
2017-Sep-14 23:28N 54°11' E 005°13'3 7.1
2017-Sep-14 23:00N 54°13' E 005°18'59 7.3
2017-Sep-14 14:58N 54°46' E 006°41'4 8.3
2017-Sep-14 14:30N 54°48' E 006°47'4 8.4
2017-Sep-14 14:01N 54°51' E 006°52'4 8.4
2017-Sep-14 13:31N 54°53' E 006°58'4 8.6
2017-Sep-14 13:00N 54°56' E 007°04'4 8.7
2017-Sep-14 12:30N 54°58' E 007°10'4 8.8
2017-Sep-14 12:00N 55°01' E 007°17'4 8.9
2017-Sep-14 11:30N 55°04' E 007°23'4 8.8
2017-Sep-14 11:00N 55°06' E 007°29'4 8.3
2017-Sep-14 10:30N 55°09' E 007°34'4 8.6
2017-Sep-14 10:00N 55°12' E 007°40'4 8.6
2017-Sep-14 09:30N 55°14' E 007°46'4 8.8
2017-Sep-14 09:00N 55°17' E 007°52'4 8.7
2017-Sep-14 08:30N 55°19' E 007°59'4 8.9
2017-Sep-14 08:00N 55°22' E 008°05'5 9.1
2017-Sep-14 07:30N 55°25' E 008°12'5 9.6
2017-Sep-14 07:00N 55°27' E 008°19'4 7.4
2017-Sep-14 06:30N 55°28' E 008°25'2 2.8
2017-Sep-14 05:55N 55°27' E 008°27'0 0.0
2017-Sep-14 05:28N 55°27' E 008°27'0 0.0
2017-Sep-14 04:58N 55°27' E 008°27'0 0.0
2017-Sep-14 04:25N 55°27' E 008°27'0 0.0
2017-Sep-14 03:55N 55°27' E 008°27'0 0.0
2017-Sep-14 03:28N 55°27' E 008°27'0 0.0
2017-Sep-14 02:58N 55°27' E 008°27'0 0.0
2017-Sep-14 02:28N 55°27' E 008°27'0 0.0
2017-Sep-14 01:55N 55°27' E 008°27'0 0.0
2017-Sep-14 01:28N 55°27' E 008°27'0 0.0
2017-Sep-14 00:55N 55°27' E 008°27'0 0.0
2017-Sep-14 00:28N 55°27' E 008°27'0 0.0
2017-Sep-13 23:55N 55°27' E 008°27'0 0.0
2017-Sep-13 23:28N 55°27' E 008°27'0 0.0
2017-Sep-13 22:55N 55°27' E 008°27'0 0.0
2017-Sep-13 22:28N 55°27' E 008°27'0 0.0
2017-Sep-13 21:55N 55°27' E 008°27'0 0.0
2017-Sep-13 21:28N 55°27' E 008°27'0 0.0
2017-Sep-13 20:58N 55°27' E 008°27'0 0.0
2017-Sep-13 20:30N 55°27' E 008°27'0 0.0
2017-Sep-13 20:00N 55°27' E 008°27'0 0.0
2017-Sep-13 19:30N 55°27' E 008°27'0 0.0
2017-Sep-13 19:00N 55°27' E 008°27'0 0.0
2017-Sep-13 18:30N 55°27' E 008°27'0 0.0
2017-Sep-13 18:00N 55°27' E 008°27'0 0.0
2017-Sep-13 17:30N 55°27' E 008°27'0 0.0
2017-Sep-13 17:00N 55°27' E 008°27'0 0.0
2017-Sep-13 16:30N 55°27' E 008°27'0 0.0
2017-Sep-13 16:00N 55°27' E 008°27'0 0.0
2017-Sep-13 15:30N 55°27' E 008°27'0 0.0
2017-Sep-13 15:00N 55°27' E 008°27'0 0.0
2017-Sep-13 14:30N 55°27' E 008°27'0 0.0
2017-Sep-13 14:00N 55°27' E 008°27'0 0.0
2017-Sep-13 13:30N 55°27' E 008°27'0 0.0
2017-Sep-13 13:00N 55°27' E 008°27'0 0.0
2017-Sep-13 12:30N 55°27' E 008°27'0 0.0
2017-Sep-13 12:00N 55°27' E 008°27'0 0.0
2017-Sep-13 11:30N 55°27' E 008°27'0 0.0
2017-Sep-13 11:00N 55°27' E 008°28'0 0.0
2017-Sep-13 10:30N 55°27' E 008°28'0 0.0
2017-Sep-13 10:00N 55°27' E 008°28'0 0.0
2017-Sep-13 09:30N 55°27' E 008°27'0 0.0
2017-Sep-13 09:00N 55°27' E 008°27'0 0.0
2017-Sep-13 08:30N 55°27' E 008°27'0 0.0
2017-Sep-13 08:00N 55°27' E 008°27'0 0.0
2017-Sep-13 07:30N 55°27' E 008°27'0 0.0
2017-Sep-13 07:00N 55°27' E 008°27'0 0.0
2017-Sep-13 06:30N 55°27' E 008°27'0 0.0
2017-Sep-13 06:00N 55°27' E 008°27'0 0.0
2017-Sep-13 05:30N 55°27' E 008°27'0 0.0
2017-Sep-13 05:00N 55°27' E 008°27'0 0.0
2017-Sep-13 04:30N 55°27' E 008°27'0 0.0
2017-Sep-13 04:00N 55°27' E 008°27'0 0.0
2017-Sep-13 03:30N 55°27' E 008°27'0 0.0
2017-Sep-13 03:00N 55°27' E 008°27'0 0.0
2017-Sep-13 02:30N 55°27' E 008°27'0 0.0
2017-Sep-13 02:00N 55°27' E 008°27'0 0.0
2017-Sep-13 01:30N 55°27' E 008°27'0 0.0
2017-Sep-13 01:00N 55°27' E 008°27'0 0.0
2017-Sep-13 00:30N 55°27' E 008°27'0 0.0
2017-Sep-13 00:00N 55°27' E 008°27'0 0.0
2017-Sep-12 23:30N 55°27' E 008°27'0 0.0
2017-Sep-12 23:00N 55°27' E 008°27'0 0.0
2017-Sep-12 22:30N 55°27' E 008°27'0 0.0
2017-Sep-12 22:00N 55°27' E 008°27'0 0.0
2017-Sep-12 21:30N 55°27' E 008°27'0 0.0
2017-Sep-12 20:58N 55°27' E 008°27'0 0.0
2017-Sep-12 20:30N 55°27' E 008°27'0 0.0
2017-Sep-12 20:00N 55°27' E 008°27'0 0.0
2017-Sep-12 19:30N 55°27' E 008°27'0 0.0
2017-Sep-12 19:00N 55°27' E 008°27'0 0.0
2017-Sep-12 18:30N 55°27' E 008°27'0 0.0
2017-Sep-12 18:00N 55°27' E 008°27'0 0.0
2017-Sep-12 17:30N 55°27' E 008°27'0 0.0
2017-Sep-12 17:00N 55°27' E 008°27'0 0.0
2017-Sep-12 16:30N 55°27' E 008°27'0 0.0
2017-Sep-12 16:00N 55°27' E 008°27'0 0.0
2017-Sep-12 15:30N 55°27' E 008°27'0 0.0
2017-Sep-12 15:00N 55°27' E 008°27'0 0.0
2017-Sep-12 14:30N 55°27' E 008°27'0 0.0
2017-Sep-12 14:00N 55°27' E 008°27'0 0.0
2017-Sep-12 13:30N 55°27' E 008°27'0 0.0
2017-Sep-12 13:00N 55°27' E 008°27'0 0.0
2017-Sep-12 12:30N 55°27' E 008°27'0 0.0
2017-Sep-12 12:00N 55°27' E 008°27'0 0.0
2017-Sep-12 11:30N 55°27' E 008°27'0 0.0
2017-Sep-12 11:00N 55°27' E 008°27'0 0.0
2017-Sep-12 10:30N 55°27' E 008°27'0 0.0
2017-Sep-12 10:00N 55°27' E 008°27'0 0.0
2017-Sep-12 09:30N 55°27' E 008°27'0 0.0
2017-Sep-12 09:00N 55°27' E 008°27'0 0.0
2017-Sep-12 08:30N 55°27' E 008°27'0 0.0
2017-Sep-12 08:00N 55°27' E 008°27'0 0.0
2017-Sep-12 07:30N 55°27' E 008°27'0 0.0
2017-Sep-12 07:00N 55°27' E 008°27'0 0.0
2017-Sep-12 06:30N 55°27' E 008°27'0 0.0
2017-Sep-12 06:00N 55°27' E 008°27'0 0.0
2017-Sep-12 05:30N 55°27' E 008°27'0 0.0
2017-Sep-12 05:00N 55°27' E 008°27'0 0.0
2017-Sep-12 04:30N 55°27' E 008°27'0 0.0
2017-Sep-12 04:00N 55°27' E 008°27'0 0.0
2017-Sep-12 03:30N 55°27' E 008°27'0 0.0
2017-Sep-12 03:00N 55°27' E 008°27'0 0.0
2017-Sep-12 02:30N 55°27' E 008°27'0 0.0
2017-Sep-12 02:00N 55°27' E 008°27'0 0.0
2017-Sep-12 01:30N 55°27' E 008°27'0 0.0
2017-Sep-12 01:00N 55°27' E 008°27'0 0.0
2017-Sep-12 00:30N 55°27' E 008°27'0 0.0
2017-Sep-12 00:00N 55°27' E 008°27'0 0.0
2017-Sep-11 23:30N 55°27' E 008°27'0 0.0
2017-Sep-11 23:00N 55°27' E 008°27'0 0.0
2017-Sep-11 22:30N 55°27' E 008°27'0 0.0
2017-Sep-11 22:00N 55°27' E 008°27'0 0.0
2017-Sep-11 21:30N 55°27' E 008°27'0 0.0
2017-Sep-11 21:00N 55°27' E 008°27'0 0.0
2017-Sep-11 20:30N 55°27' E 008°27'0 0.0
2017-Sep-11 20:00N 55°27' E 008°27'0 0.0
2017-Sep-11 19:30N 55°27' E 008°27'0 0.0
2017-Sep-11 19:00N 55°27' E 008°27'0 0.0
2017-Sep-11 18:30N 55°27' E 008°27'0 0.0
2017-Sep-11 18:00N 55°27' E 008°27'0 0.0
2017-Sep-11 17:30N 55°27' E 008°27'0 0.0
2017-Sep-11 17:00N 55°27' E 008°27'0 0.0
2017-Sep-11 16:30N 55°27' E 008°27'0 0.0
2017-Sep-11 16:00N 55°27' E 008°27'0 0.0
2017-Sep-11 15:30N 55°27' E 008°27'0 0.0
2017-Sep-11 15:00N 55°27' E 008°27'0 0.0
2017-Sep-11 14:30N 55°27' E 008°27'0 0.0
2017-Sep-11 14:00N 55°27' E 008°27'0 0.0
2017-Sep-11 13:30N 55°27' E 008°27'0 0.0
2017-Sep-11 13:00N 55°27' E 008°27'0 0.0
2017-Sep-11 12:30N 55°27' E 008°27'0 0.0
2017-Sep-11 12:00N 55°27' E 008°27'0 0.0
2017-Sep-11 11:30N 55°27' E 008°27'0 0.0
2017-Sep-11 11:00N 55°27' E 008°27'0 0.0
2017-Sep-11 10:30N 55°27' E 008°27'0 0.0
2017-Sep-11 10:00N 55°27' E 008°27'0 0.0
2017-Sep-11 09:30N 55°27' E 008°27'0 0.0
2017-Sep-11 09:00N 55°27' E 008°27'0 0.0
2017-Sep-11 08:30N 55°27' E 008°27'0 0.0
2017-Sep-11 08:00N 55°27' E 008°27'0 0.0
2017-Sep-11 07:28N 55°27' E 008°27'0 0.0
2017-Sep-11 07:00N 55°27' E 008°27'0 0.0
2017-Sep-11 06:30N 55°27' E 008°27'0 0.0
2017-Sep-11 05:59N 55°27' E 008°27'0 0.0
2017-Sep-11 05:30N 55°27' E 008°27'0 0.0
2017-Sep-11 05:00N 55°27' E 008°27'0 0.0
2017-Sep-11 04:30N 55°27' E 008°27'0 0.0
2017-Sep-11 04:00N 55°27' E 008°27'0 0.0
2017-Sep-11 03:30N 55°27' E 008°27'0 0.0
2017-Sep-11 03:00N 55°27' E 008°27'0 0.0
2017-Sep-11 02:30N 55°27' E 008°27'  

Dump ship's entire track history